sensor_id;sensor_type;location;lat;lon;timestamp;P1;durP1;ratioP1;P2;durP2;ratioP2
3781;SDS011;6881;49.962;7.718;2024-03-02T00:02:00;5.70;;;4.23;;
3781;SDS011;6881;49.962;7.718;2024-03-02T00:04:25;5.50;;;5.00;;
3781;SDS011;6881;49.962;7.718;2024-03-02T00:06:54;5.77;;;5.10;;
3781;SDS011;6881;49.962;7.718;2024-03-02T00:09:22;9.03;;;6.40;;
3781;SDS011;6881;49.962;7.718;2024-03-02T00:11:47;7.83;;;6.00;;
3781;SDS011;6881;49.962;7.718;2024-03-02T00:14:13;8.60;;;5.90;;
3781;SDS011;6881;49.962;7.718;2024-03-02T00:16:38;6.57;;;5.67;;
3781;SDS011;6881;49.962;7.718;2024-03-02T00:19:05;9.87;;;6.30;;
3781;SDS011;6881;49.962;7.718;2024-03-02T00:21:31;8.00;;;5.77;;
3781;SDS011;6881;49.962;7.718;2024-03-02T00:23:56;4.63;;;4.10;;
3781;SDS011;6881;49.962;7.718;2024-03-02T00:26:22;12.07;;;5.60;;
3781;SDS011;6881;49.962;7.718;2024-03-02T00:28:47;5.43;;;4.47;;
3781;SDS011;6881;49.962;7.718;2024-03-02T00:31:15;6.30;;;4.53;;
3781;SDS011;6881;49.962;7.718;2024-03-02T00:33:41;11.17;;;4.80;;
3781;SDS011;6881;49.962;7.718;2024-03-02T00:36:08;5.90;;;5.13;;
3781;SDS011;6881;49.962;7.718;2024-03-02T00:38:34;8.00;;;4.80;;
3781;SDS011;6881;49.962;7.718;2024-03-02T00:41:00;8.37;;;4.90;;
3781;SDS011;6881;49.962;7.718;2024-03-02T00:46:09;6.90;;;5.43;;
3781;SDS011;6881;49.962;7.718;2024-03-02T00:48:36;6.90;;;5.70;;
3781;SDS011;6881;49.962;7.718;2024-03-02T00:51:02;10.63;;;6.47;;
3781;SDS011;6881;49.962;7.718;2024-03-02T00:53:29;8.30;;;5.50;;
3781;SDS011;6881;49.962;7.718;2024-03-02T00:55:54;9.10;;;5.60;;
3781;SDS011;6881;49.962;7.718;2024-03-02T00:58:20;6.57;;;5.30;;
3781;SDS011;6881;49.962;7.718;2024-03-02T01:00:46;8.67;;;6.17;;
3781;SDS011;6881;49.962;7.718;2024-03-02T01:03:11;8.07;;;5.50;;
3781;SDS011;6881;49.962;7.718;2024-03-02T01:05:40;8.13;;;5.93;;
3781;SDS011;6881;49.962;7.718;2024-03-02T01:08:07;5.57;;;4.40;;
3781;SDS011;6881;49.962;7.718;2024-03-02T01:10:32;7.20;;;5.50;;
3781;SDS011;6881;49.962;7.718;2024-03-02T01:12:58;8.40;;;5.53;;
3781;SDS011;6881;49.962;7.718;2024-03-02T01:15:24;7.33;;;5.93;;
3781;SDS011;6881;49.962;7.718;2024-03-02T01:17:49;8.00;;;6.47;;
3781;SDS011;6881;49.962;7.718;2024-03-02T01:20:14;7.90;;;6.10;;
3781;SDS011;6881;49.962;7.718;2024-03-02T01:22:40;11.60;;;7.40;;
3781;SDS011;6881;49.962;7.718;2024-03-02T01:25:05;9.20;;;6.77;;
3781;SDS011;6881;49.962;7.718;2024-03-02T01:27:31;11.83;;;8.17;;
3781;SDS011;6881;49.962;7.718;2024-03-02T01:29:56;14.93;;;9.10;;
3781;SDS011;6881;49.962;7.718;2024-03-02T01:32:21;28.47;;;15.00;;
3781;SDS011;6881;49.962;7.718;2024-03-02T01:34:47;33.37;;;15.23;;
3781;SDS011;6881;49.962;7.718;2024-03-02T01:37:12;13.40;;;8.57;;
3781;SDS011;6881;49.962;7.718;2024-03-02T01:39:37;11.87;;;8.83;;
3781;SDS011;6881;49.962;7.718;2024-03-02T01:42:03;13.60;;;9.10;;
3781;SDS011;6881;49.962;7.718;2024-03-02T01:44:28;13.97;;;9.83;;
3781;SDS011;6881;49.962;7.718;2024-03-02T01:46:53;15.00;;;9.50;;
3781;SDS011;6881;49.962;7.718;2024-03-02T01:49:19;11.90;;;8.73;;
3781;SDS011;6881;49.962;7.718;2024-03-02T01:51:44;11.23;;;8.53;;
3781;SDS011;6881;49.962;7.718;2024-03-02T01:54:09;12.13;;;7.70;;
3781;SDS011;6881;49.962;7.718;2024-03-02T01:56:35;13.00;;;8.77;;
3781;SDS011;6881;49.962;7.718;2024-03-02T01:59:00;11.77;;;8.33;;
3781;SDS011;6881;49.962;7.718;2024-03-02T02:01:26;11.80;;;8.70;;
3781;SDS011;6881;49.962;7.718;2024-03-02T02:03:51;12.63;;;8.40;;
3781;SDS011;6881;49.962;7.718;2024-03-02T02:06:17;14.40;;;8.10;;
3781;SDS011;6881;49.962;7.718;2024-03-02T02:08:42;13.80;;;9.23;;
3781;SDS011;6881;49.962;7.718;2024-03-02T02:11:07;12.70;;;8.73;;
3781;SDS011;6881;49.962;7.718;2024-03-02T02:13:33;12.90;;;8.33;;
3781;SDS011;6881;49.962;7.718;2024-03-02T02:16:05;9.40;;;7.30;;
3781;SDS011;6881;49.962;7.718;2024-03-02T02:18:32;11.57;;;8.50;;
3781;SDS011;6881;49.962;7.718;2024-03-02T02:20:57;13.47;;;9.10;;
3781;SDS011;6881;49.962;7.718;2024-03-02T02:23:23;15.17;;;11.20;;
3781;SDS011;6881;49.962;7.718;2024-03-02T02:25:48;14.17;;;10.60;;
3781;SDS011;6881;49.962;7.718;2024-03-02T02:28:13;15.50;;;9.77;;
3781;SDS011;6881;49.962;7.718;2024-03-02T02:30:38;13.83;;;9.33;;
3781;SDS011;6881;49.962;7.718;2024-03-02T02:33:04;14.27;;;9.93;;
3781;SDS011;6881;49.962;7.718;2024-03-02T02:35:29;19.87;;;10.50;;
3781;SDS011;6881;49.962;7.718;2024-03-02T02:37:55;19.30;;;12.07;;
3781;SDS011;6881;49.962;7.718;2024-03-02T02:40:22;20.93;;;12.33;;
3781;SDS011;6881;49.962;7.718;2024-03-02T02:42:48;17.53;;;11.33;;
3781;SDS011;6881;49.962;7.718;2024-03-02T02:45:13;13.40;;;9.83;;
3781;SDS011;6881;49.962;7.718;2024-03-02T02:47:40;14.57;;;10.20;;
3781;SDS011;6881;49.962;7.718;2024-03-02T02:50:09;15.60;;;10.57;;
3781;SDS011;6881;49.962;7.718;2024-03-02T02:52:36;16.73;;;10.47;;
3781;SDS011;6881;49.962;7.718;2024-03-02T02:55:04;23.90;;;12.70;;
3781;SDS011;6881;49.962;7.718;2024-03-02T02:57:34;22.57;;;14.43;;
3781;SDS011;6881;49.962;7.718;2024-03-02T03:00:07;16.77;;;10.77;;
3781;SDS011;6881;49.962;7.718;2024-03-02T03:02:41;17.43;;;11.53;;
3781;SDS011;6881;49.962;7.718;2024-03-02T03:05:07;18.03;;;12.03;;
3781;SDS011;6881;49.962;7.718;2024-03-02T03:07:36;21.40;;;12.40;;
3781;SDS011;6881;49.962;7.718;2024-03-02T03:10:02;23.73;;;13.27;;
3781;SDS011;6881;49.962;7.718;2024-03-02T03:12:29;24.80;;;14.60;;
3781;SDS011;6881;49.962;7.718;2024-03-02T03:14:56;27.57;;;13.97;;
3781;SDS011;6881;49.962;7.718;2024-03-02T03:17:22;27.67;;;16.87;;
3781;SDS011;6881;49.962;7.718;2024-03-02T03:19:48;26.43;;;16.10;;
3781;SDS011;6881;49.962;7.718;2024-03-02T03:22:13;26.00;;;16.47;;
3781;SDS011;6881;49.962;7.718;2024-03-02T03:24:38;35.30;;;18.83;;
3781;SDS011;6881;49.962;7.718;2024-03-02T03:27:04;27.20;;;16.07;;
3781;SDS011;6881;49.962;7.718;2024-03-02T03:29:29;33.83;;;19.00;;
3781;SDS011;6881;49.962;7.718;2024-03-02T03:31:54;33.47;;;18.23;;
3781;SDS011;6881;49.962;7.718;2024-03-02T03:34:20;29.20;;;17.10;;
3781;SDS011;6881;49.962;7.718;2024-03-02T03:36:45;34.30;;;20.40;;
3781;SDS011;6881;49.962;7.718;2024-03-02T03:39:10;32.90;;;19.23;;
3781;SDS011;6881;49.962;7.718;2024-03-02T03:41:36;39.40;;;21.00;;
3781;SDS011;6881;49.962;7.718;2024-03-02T03:44:01;30.93;;;17.80;;
3781;SDS011;6881;49.962;7.718;2024-03-02T03:46:26;29.00;;;16.07;;
3781;SDS011;6881;49.962;7.718;2024-03-02T03:48:52;32.00;;;18.57;;
3781;SDS011;6881;49.962;7.718;2024-03-02T03:51:17;35.97;;;19.73;;
3781;SDS011;6881;49.962;7.718;2024-03-02T03:53:42;28.80;;;15.97;;
3781;SDS011;6881;49.962;7.718;2024-03-02T03:56:08;27.40;;;16.07;;
3781;SDS011;6881;49.962;7.718;2024-03-02T03:58:33;33.60;;;17.07;;
3781;SDS011;6881;49.962;7.718;2024-03-02T04:00:58;25.20;;;16.27;;
3781;SDS011;6881;49.962;7.718;2024-03-02T04:03:24;27.10;;;14.63;;
3781;SDS011;6881;49.962;7.718;2024-03-02T04:05:50;32.03;;;17.80;;
3781;SDS011;6881;49.962;7.718;2024-03-02T04:08:15;34.40;;;17.40;;
3781;SDS011;6881;49.962;7.718;2024-03-02T04:10:40;28.47;;;17.07;;
3781;SDS011;6881;49.962;7.718;2024-03-02T04:13:07;33.90;;;17.30;;
3781;SDS011;6881;49.962;7.718;2024-03-02T04:15:32;30.10;;;17.40;;
3781;SDS011;6881;49.962;7.718;2024-03-02T04:17:57;34.70;;;17.67;;
3781;SDS011;6881;49.962;7.718;2024-03-02T04:20:23;26.37;;;16.77;;
3781;SDS011;6881;49.962;7.718;2024-03-02T04:22:48;28.30;;;17.00;;
3781;SDS011;6881;49.962;7.718;2024-03-02T04:25:13;34.30;;;18.53;;
3781;SDS011;6881;49.962;7.718;2024-03-02T04:27:39;31.00;;;17.60;;
3781;SDS011;6881;49.962;7.718;2024-03-02T04:30:04;22.07;;;14.90;;
3781;SDS011;6881;49.962;7.718;2024-03-02T04:32:30;30.37;;;15.90;;
3781;SDS011;6881;49.962;7.718;2024-03-02T04:34:56;22.97;;;15.40;;
3781;SDS011;6881;49.962;7.718;2024-03-02T04:37:22;26.40;;;14.03;;
3781;SDS011;6881;49.962;7.718;2024-03-02T04:39:47;27.80;;;15.93;;
3781;SDS011;6881;49.962;7.718;2024-03-02T04:42:12;28.10;;;15.77;;
3781;SDS011;6881;49.962;7.718;2024-03-02T04:44:38;31.70;;;16.93;;
3781;SDS011;6881;49.962;7.718;2024-03-02T04:47:03;24.77;;;16.77;;
3781;SDS011;6881;49.962;7.718;2024-03-02T04:49:29;23.20;;;14.07;;
3781;SDS011;6881;49.962;7.718;2024-03-02T04:51:55;21.67;;;13.90;;
3781;SDS011;6881;49.962;7.718;2024-03-02T04:54:20;22.90;;;14.13;;
3781;SDS011;6881;49.962;7.718;2024-03-02T04:56:46;27.97;;;14.70;;
3781;SDS011;6881;49.962;7.718;2024-03-02T04:59:17;26.27;;;15.00;;
3781;SDS011;6881;49.962;7.718;2024-03-02T05:01:43;20.87;;;15.03;;
3781;SDS011;6881;49.962;7.718;2024-03-02T05:04:08;27.00;;;15.83;;
3781;SDS011;6881;49.962;7.718;2024-03-02T05:06:36;30.20;;;16.23;;
3781;SDS011;6881;49.962;7.718;2024-03-02T05:09:03;24.87;;;15.37;;
3781;SDS011;6881;49.962;7.718;2024-03-02T05:11:28;22.97;;;15.13;;
3781;SDS011;6881;49.962;7.718;2024-03-02T05:14:04;26.60;;;15.13;;
3781;SDS011;6881;49.962;7.718;2024-03-02T05:16:33;30.47;;;14.50;;
3781;SDS011;6881;49.962;7.718;2024-03-02T05:18:59;25.30;;;16.60;;
3781;SDS011;6881;49.962;7.718;2024-03-02T05:21:24;25.30;;;15.80;;
3781;SDS011;6881;49.962;7.718;2024-03-02T05:23:50;19.60;;;14.13;;
3781;SDS011;6881;49.962;7.718;2024-03-02T05:26:15;28.17;;;17.63;;
3781;SDS011;6881;49.962;7.718;2024-03-02T05:28:41;28.43;;;18.00;;
3781;SDS011;6881;49.962;7.718;2024-03-02T05:31:09;31.27;;;19.20;;
3781;SDS011;6881;49.962;7.718;2024-03-02T05:33:37;34.27;;;21.20;;
3781;SDS011;6881;49.962;7.718;2024-03-02T05:36:03;29.23;;;19.20;;
3781;SDS011;6881;49.962;7.718;2024-03-02T05:38:28;31.80;;;19.73;;
3781;SDS011;6881;49.962;7.718;2024-03-02T05:40:53;30.50;;;18.23;;
3781;SDS011;6881;49.962;7.718;2024-03-02T05:43:19;29.77;;;18.57;;
3781;SDS011;6881;49.962;7.718;2024-03-02T05:45:45;31.77;;;18.53;;
3781;SDS011;6881;49.962;7.718;2024-03-02T05:48:10;33.83;;;18.40;;
3781;SDS011;6881;49.962;7.718;2024-03-02T05:50:35;30.03;;;16.37;;
3781;SDS011;6881;49.962;7.718;2024-03-02T05:53:01;28.23;;;16.83;;
3781;SDS011;6881;49.962;7.718;2024-03-02T05:55:26;27.50;;;18.03;;
3781;SDS011;6881;49.962;7.718;2024-03-02T05:57:51;31.43;;;18.50;;
3781;SDS011;6881;49.962;7.718;2024-03-02T06:00:37;27.17;;;17.17;;
3781;SDS011;6881;49.962;7.718;2024-03-02T06:03:02;30.67;;;16.57;;
3781;SDS011;6881;49.962;7.718;2024-03-02T06:05:28;28.83;;;16.10;;
3781;SDS011;6881;49.962;7.718;2024-03-02T06:07:53;26.33;;;16.60;;
3781;SDS011;6881;49.962;7.718;2024-03-02T06:10:19;31.50;;;18.10;;
3781;SDS011;6881;49.962;7.718;2024-03-02T06:12:45;29.33;;;16.80;;
3781;SDS011;6881;49.962;7.718;2024-03-02T06:15:11;34.37;;;19.20;;
3781;SDS011;6881;49.962;7.718;2024-03-02T06:17:36;29.27;;;18.60;;
3781;SDS011;6881;49.962;7.718;2024-03-02T06:20:02;29.10;;;18.20;;
3781;SDS011;6881;49.962;7.718;2024-03-02T06:22:27;33.50;;;19.70;;
3781;SDS011;6881;49.962;7.718;2024-03-02T06:24:53;30.10;;;19.63;;
3781;SDS011;6881;49.962;7.718;2024-03-02T06:27:18;26.93;;;19.00;;
3781;SDS011;6881;49.962;7.718;2024-03-02T06:29:43;35.00;;;20.47;;
3781;SDS011;6881;49.962;7.718;2024-03-02T06:32:09;32.40;;;18.80;;
3781;SDS011;6881;49.962;7.718;2024-03-02T06:34:34;35.43;;;21.90;;
3781;SDS011;6881;49.962;7.718;2024-03-02T06:36:59;33.10;;;19.60;;
3781;SDS011;6881;49.962;7.718;2024-03-02T06:39:25;34.70;;;19.63;;
3781;SDS011;6881;49.962;7.718;2024-03-02T06:41:51;29.93;;;18.63;;
3781;SDS011;6881;49.962;7.718;2024-03-02T06:44:16;26.40;;;18.30;;
3781;SDS011;6881;49.962;7.718;2024-03-02T06:46:41;30.90;;;17.17;;
3781;SDS011;6881;49.962;7.718;2024-03-02T06:49:07;28.53;;;16.43;;
3781;SDS011;6881;49.962;7.718;2024-03-02T06:51:33;27.93;;;15.80;;
3781;SDS011;6881;49.962;7.718;2024-03-02T06:53:59;27.73;;;15.90;;
3781;SDS011;6881;49.962;7.718;2024-03-02T06:56:24;25.03;;;16.83;;
3781;SDS011;6881;49.962;7.718;2024-03-02T06:58:49;31.37;;;18.07;;
3781;SDS011;6881;49.962;7.718;2024-03-02T07:01:15;29.87;;;18.40;;
3781;SDS011;6881;49.962;7.718;2024-03-02T07:03:40;16.30;;;11.57;;
3781;SDS011;6881;49.962;7.718;2024-03-02T07:06:05;30.20;;;17.33;;
3781;SDS011;6881;49.962;7.718;2024-03-02T07:08:31;33.87;;;19.77;;
3781;SDS011;6881;49.962;7.718;2024-03-02T07:10:56;31.17;;;19.90;;
3781;SDS011;6881;49.962;7.718;2024-03-02T07:13:22;30.70;;;18.00;;
3781;SDS011;6881;49.962;7.718;2024-03-02T07:15:47;30.40;;;18.83;;
3781;SDS011;6881;49.962;7.718;2024-03-02T07:18:27;28.13;;;18.13;;
3781;SDS011;6881;49.962;7.718;2024-03-02T07:20:53;33.33;;;19.73;;
3781;SDS011;6881;49.962;7.718;2024-03-02T07:23:18;31.80;;;20.80;;
3781;SDS011;6881;49.962;7.718;2024-03-02T07:25:45;33.53;;;20.77;;
3781;SDS011;6881;49.962;7.718;2024-03-02T07:28:10;28.03;;;17.97;;
3781;SDS011;6881;49.962;7.718;2024-03-02T07:30:36;30.83;;;19.70;;
3781;SDS011;6881;49.962;7.718;2024-03-02T07:33:03;42.20;;;23.40;;
3781;SDS011;6881;49.962;7.718;2024-03-02T07:35:29;47.80;;;23.70;;
3781;SDS011;6881;49.962;7.718;2024-03-02T07:37:56;42.80;;;22.53;;
3781;SDS011;6881;49.962;7.718;2024-03-02T07:40:22;40.30;;;25.17;;
3781;SDS011;6881;49.962;7.718;2024-03-02T07:42:47;40.93;;;22.50;;
3781;SDS011;6881;49.962;7.718;2024-03-02T07:45:13;39.67;;;24.03;;
3781;SDS011;6881;49.962;7.718;2024-03-02T07:47:38;36.10;;;23.23;;
3781;SDS011;6881;49.962;7.718;2024-03-02T07:50:04;27.63;;;20.80;;
3781;SDS011;6881;49.962;7.718;2024-03-02T07:52:31;28.70;;;19.93;;
3781;SDS011;6881;49.962;7.718;2024-03-02T07:54:57;27.40;;;17.43;;
3781;SDS011;6881;49.962;7.718;2024-03-02T07:57:22;27.67;;;19.40;;
3781;SDS011;6881;49.962;7.718;2024-03-02T07:59:48;30.67;;;20.13;;
3781;SDS011;6881;49.962;7.718;2024-03-02T08:02:14;34.60;;;23.10;;
3781;SDS011;6881;49.962;7.718;2024-03-02T08:04:39;30.87;;;20.20;;
3781;SDS011;6881;49.962;7.718;2024-03-02T08:07:05;36.80;;;23.73;;
3781;SDS011;6881;49.962;7.718;2024-03-02T08:09:31;23.33;;;16.60;;
3781;SDS011;6881;49.962;7.718;2024-03-02T08:11:56;26.37;;;18.10;;
3781;SDS011;6881;49.962;7.718;2024-03-02T08:14:23;24.00;;;17.00;;
3781;SDS011;6881;49.962;7.718;2024-03-02T08:16:48;21.60;;;16.87;;
3781;SDS011;6881;49.962;7.718;2024-03-02T08:19:14;29.60;;;17.57;;
3781;SDS011;6881;49.962;7.718;2024-03-02T08:21:39;22.73;;;17.47;;
3781;SDS011;6881;49.962;7.718;2024-03-02T08:24:05;20.70;;;16.07;;
3781;SDS011;6881;49.962;7.718;2024-03-02T08:26:30;21.47;;;15.83;;
3781;SDS011;6881;49.962;7.718;2024-03-02T08:28:57;24.70;;;18.00;;
3781;SDS011;6881;49.962;7.718;2024-03-02T08:31:23;22.70;;;15.83;;
3781;SDS011;6881;49.962;7.718;2024-03-02T08:33:48;23.13;;;17.73;;
3781;SDS011;6881;49.962;7.718;2024-03-02T08:36:13;19.70;;;15.40;;
3781;SDS011;6881;49.962;7.718;2024-03-02T08:38:39;22.03;;;15.07;;
3781;SDS011;6881;49.962;7.718;2024-03-02T08:41:04;20.73;;;15.00;;
3781;SDS011;6881;49.962;7.718;2024-03-02T08:43:30;22.10;;;15.30;;
3781;SDS011;6881;49.962;7.718;2024-03-02T08:45:55;21.27;;;15.27;;
3781;SDS011;6881;49.962;7.718;2024-03-02T08:48:21;19.03;;;15.40;;
3781;SDS011;6881;49.962;7.718;2024-03-02T08:50:46;17.80;;;14.50;;
3781;SDS011;6881;49.962;7.718;2024-03-02T08:53:11;21.10;;;14.77;;
3781;SDS011;6881;49.962;7.718;2024-03-02T08:55:37;17.23;;;14.50;;
3781;SDS011;6881;49.962;7.718;2024-03-02T08:58:02;17.80;;;14.10;;
3781;SDS011;6881;49.962;7.718;2024-03-02T09:00:28;21.77;;;15.70;;
3781;SDS011;6881;49.962;7.718;2024-03-02T09:02:53;18.90;;;15.43;;
3781;SDS011;6881;49.962;7.718;2024-03-02T09:05:19;53.30;;;34.27;;
3781;SDS011;6881;49.962;7.718;2024-03-02T09:07:44;30.27;;;23.43;;
3781;SDS011;6881;49.962;7.718;2024-03-02T09:10:10;14.67;;;12.80;;
3781;SDS011;6881;49.962;7.718;2024-03-02T09:12:35;17.17;;;13.20;;
3781;SDS011;6881;49.962;7.718;2024-03-02T09:15:01;18.90;;;12.60;;
3781;SDS011;6881;49.962;7.718;2024-03-02T09:17:28;16.50;;;11.83;;
3781;SDS011;6881;49.962;7.718;2024-03-02T09:19:53;15.97;;;11.93;;
3781;SDS011;6881;49.962;7.718;2024-03-02T09:22:19;18.07;;;13.30;;
3781;SDS011;6881;49.962;7.718;2024-03-02T09:24:44;23.40;;;16.13;;
3781;SDS011;6881;49.962;7.718;2024-03-02T09:27:10;27.97;;;21.50;;
3781;SDS011;6881;49.962;7.718;2024-03-02T09:29:35;21.27;;;16.80;;
3781;SDS011;6881;49.962;7.718;2024-03-02T09:32:01;16.80;;;13.57;;
3781;SDS011;6881;49.962;7.718;2024-03-02T09:34:26;16.70;;;12.70;;
3781;SDS011;6881;49.962;7.718;2024-03-02T09:36:51;14.53;;;12.37;;
3781;SDS011;6881;49.962;7.718;2024-03-02T09:39:17;16.07;;;11.60;;
3781;SDS011;6881;49.962;7.718;2024-03-02T09:41:43;16.23;;;12.70;;
3781;SDS011;6881;49.962;7.718;2024-03-02T09:44:09;15.43;;;12.50;;
3781;SDS011;6881;49.962;7.718;2024-03-02T09:46:34;19.00;;;15.70;;
3781;SDS011;6881;49.962;7.718;2024-03-02T09:49:01;11.77;;;9.63;;
3781;SDS011;6881;49.962;7.718;2024-03-02T09:51:27;12.00;;;10.10;;
3781;SDS011;6881;49.962;7.718;2024-03-02T09:53:52;11.83;;;10.27;;
3781;SDS011;6881;49.962;7.718;2024-03-02T09:56:19;19.83;;;14.27;;
3781;SDS011;6881;49.962;7.718;2024-03-02T09:58:46;15.67;;;12.27;;
3781;SDS011;6881;49.962;7.718;2024-03-02T10:01:11;12.07;;;9.80;;
3781;SDS011;6881;49.962;7.718;2024-03-02T10:03:37;9.33;;;8.40;;
3781;SDS011;6881;49.962;7.718;2024-03-02T10:08:46;31.40;;;19.67;;
3781;SDS011;6881;49.962;7.718;2024-03-02T10:11:25;58.53;;;35.83;;
3781;SDS011;6881;49.962;7.718;2024-03-02T10:13:50;35.10;;;21.27;;
3781;SDS011;6881;49.962;7.718;2024-03-02T10:16:16;49.27;;;30.80;;
3781;SDS011;6881;49.962;7.718;2024-03-02T10:18:42;32.67;;;22.77;;
3781;SDS011;6881;49.962;7.718;2024-03-02T10:21:12;13.80;;;9.73;;
3781;SDS011;6881;49.962;7.718;2024-03-02T10:23:39;24.07;;;16.30;;
3781;SDS011;6881;49.962;7.718;2024-03-02T10:26:09;20.23;;;13.87;;
3781;SDS011;6881;49.962;7.718;2024-03-02T10:28:46;26.00;;;18.63;;
3781;SDS011;6881;49.962;7.718;2024-03-02T10:31:12;23.37;;;15.80;;
3781;SDS011;6881;49.962;7.718;2024-03-02T10:33:38;18.07;;;11.97;;
3781;SDS011;6881;49.962;7.718;2024-03-02T10:36:03;15.07;;;10.87;;
3781;SDS011;6881;49.962;7.718;2024-03-02T10:38:29;11.60;;;8.70;;
3781;SDS011;6881;49.962;7.718;2024-03-02T10:40:55;17.00;;;12.17;;
3781;SDS011;6881;49.962;7.718;2024-03-02T10:43:24;19.00;;;14.10;;
3781;SDS011;6881;49.962;7.718;2024-03-02T10:45:50;17.90;;;13.47;;
3781;SDS011;6881;49.962;7.718;2024-03-02T10:48:16;13.70;;;11.03;;
3781;SDS011;6881;49.962;7.718;2024-03-02T10:50:41;15.47;;;9.83;;
3781;SDS011;6881;49.962;7.718;2024-03-02T10:53:06;13.30;;;11.30;;
3781;SDS011;6881;49.962;7.718;2024-03-02T10:55:32;13.70;;;9.93;;
3781;SDS011;6881;49.962;7.718;2024-03-02T10:57:58;13.33;;;10.57;;
3781;SDS011;6881;49.962;7.718;2024-03-02T11:00:27;11.10;;;9.30;;
3781;SDS011;6881;49.962;7.718;2024-03-02T11:02:56;9.53;;;8.50;;
3781;SDS011;6881;49.962;7.718;2024-03-02T11:05:28;10.23;;;9.10;;
3781;SDS011;6881;49.962;7.718;2024-03-02T11:07:58;11.77;;;10.23;;
3781;SDS011;6881;49.962;7.718;2024-03-02T11:10:28;17.67;;;10.07;;
3781;SDS011;6881;49.962;7.718;2024-03-02T11:13:00;12.60;;;11.03;;
3781;SDS011;6881;49.962;7.718;2024-03-02T11:15:27;11.17;;;9.73;;
3781;SDS011;6881;49.962;7.718;2024-03-02T11:17:52;12.83;;;10.87;;
3781;SDS011;6881;49.962;7.718;2024-03-02T11:20:18;12.50;;;9.93;;
3781;SDS011;6881;49.962;7.718;2024-03-02T11:22:44;11.53;;;9.70;;
3781;SDS011;6881;49.962;7.718;2024-03-02T11:25:22;12.07;;;10.60;;
3781;SDS011;6881;49.962;7.718;2024-03-02T11:30:48;11.00;;;9.80;;
3781;SDS011;6881;49.962;7.718;2024-03-02T11:33:06;10.47;;;9.37;;
3781;SDS011;6881;49.962;7.718;2024-03-02T11:35:33;14.07;;;9.37;;
3781;SDS011;6881;49.962;7.718;2024-03-02T11:37:58;10.97;;;9.87;;
3781;SDS011;6881;49.962;7.718;2024-03-02T11:40:24;10.27;;;9.10;;
3781;SDS011;6881;49.962;7.718;2024-03-02T11:42:50;10.70;;;8.53;;
3781;SDS011;6881;49.962;7.718;2024-03-02T11:45:16;11.30;;;10.03;;
3781;SDS011;6881;49.962;7.718;2024-03-02T11:47:46;10.87;;;9.73;;
3781;SDS011;6881;49.962;7.718;2024-03-02T11:50:15;10.93;;;9.83;;
3781;SDS011;6881;49.962;7.718;2024-03-02T11:52:41;12.13;;;9.10;;
3781;SDS011;6881;49.962;7.718;2024-03-02T11:55:07;10.33;;;9.33;;
3781;SDS011;6881;49.962;7.718;2024-03-02T11:57:34;12.17;;;10.97;;
3781;SDS011;6881;49.962;7.718;2024-03-02T12:00:00;10.50;;;9.47;;
3781;SDS011;6881;49.962;7.718;2024-03-02T12:02:28;10.47;;;9.37;;
3781;SDS011;6881;49.962;7.718;2024-03-02T12:04:54;10.47;;;9.07;;
3781;SDS011;6881;49.962;7.718;2024-03-02T12:07:22;9.20;;;8.30;;
3781;SDS011;6881;49.962;7.718;2024-03-02T12:09:49;11.93;;;9.70;;
3781;SDS011;6881;49.962;7.718;2024-03-02T12:12:24;11.43;;;10.30;;
3781;SDS011;6881;49.962;7.718;2024-03-02T12:14:50;11.40;;;10.27;;
3781;SDS011;6881;49.962;7.718;2024-03-02T12:17:21;10.77;;;9.40;;
3781;SDS011;6881;49.962;7.718;2024-03-02T12:19:46;10.23;;;9.00;;
3781;SDS011;6881;49.962;7.718;2024-03-02T12:22:12;11.00;;;9.00;;
3781;SDS011;6881;49.962;7.718;2024-03-02T12:24:37;11.00;;;9.40;;
3781;SDS011;6881;49.962;7.718;2024-03-02T12:27:03;12.43;;;9.63;;
3781;SDS011;6881;49.962;7.718;2024-03-02T12:29:29;9.67;;;8.63;;
3781;SDS011;6881;49.962;7.718;2024-03-02T12:31:55;9.23;;;8.20;;
3781;SDS011;6881;49.962;7.718;2024-03-02T12:34:21;10.10;;;9.10;;
3781;SDS011;6881;49.962;7.718;2024-03-02T12:36:46;10.70;;;9.70;;
3781;SDS011;6881;49.962;7.718;2024-03-02T12:39:18;12.10;;;9.73;;
3781;SDS011;6881;49.962;7.718;2024-03-02T12:41:44;11.93;;;9.80;;
3781;SDS011;6881;49.962;7.718;2024-03-02T12:44:10;10.80;;;9.70;;
3781;SDS011;6881;49.962;7.718;2024-03-02T12:46:36;9.93;;;8.93;;
3781;SDS011;6881;49.962;7.718;2024-03-02T12:49:07;9.43;;;8.53;;
3781;SDS011;6881;49.962;7.718;2024-03-02T12:51:34;10.10;;;8.70;;
3781;SDS011;6881;49.962;7.718;2024-03-02T12:54:00;10.60;;;9.60;;
3781;SDS011;6881;49.962;7.718;2024-03-02T12:56:26;10.77;;;9.27;;
3781;SDS011;6881;49.962;7.718;2024-03-02T12:58:54;10.67;;;9.67;;
3781;SDS011;6881;49.962;7.718;2024-03-02T13:01:20;11.83;;;10.67;;
3781;SDS011;6881;49.962;7.718;2024-03-02T13:03:49;12.13;;;9.40;;
3781;SDS011;6881;49.962;7.718;2024-03-02T13:06:16;11.70;;;9.60;;
3781;SDS011;6881;49.962;7.718;2024-03-02T13:08:41;10.20;;;9.13;;
3781;SDS011;6881;49.962;7.718;2024-03-02T13:11:07;13.03;;;10.90;;
3781;SDS011;6881;49.962;7.718;2024-03-02T13:13:32;12.53;;;11.20;;
3781;SDS011;6881;49.962;7.718;2024-03-02T13:15:58;11.43;;;10.30;;
3781;SDS011;6881;49.962;7.718;2024-03-02T13:18:23;15.73;;;10.83;;
3781;SDS011;6881;49.962;7.718;2024-03-02T13:20:49;11.13;;;10.03;;
3781;SDS011;6881;49.962;7.718;2024-03-02T13:23:14;11.70;;;10.43;;
3781;SDS011;6881;49.962;7.718;2024-03-02T13:25:39;13.10;;;9.97;;
3781;SDS011;6881;49.962;7.718;2024-03-02T13:28:05;11.90;;;10.60;;
3781;SDS011;6881;49.962;7.718;2024-03-02T13:30:31;11.90;;;10.70;;
3781;SDS011;6881;49.962;7.718;2024-03-02T13:32:57;10.23;;;9.33;;
3781;SDS011;6881;49.962;7.718;2024-03-02T13:35:22;11.10;;;9.93;;
3781;SDS011;6881;49.962;7.718;2024-03-02T13:37:48;11.37;;;9.83;;
3781;SDS011;6881;49.962;7.718;2024-03-02T13:40:15;8.90;;;8.00;;
3781;SDS011;6881;49.962;7.718;2024-03-02T13:42:44;9.83;;;8.87;;
3781;SDS011;6881;49.962;7.718;2024-03-02T13:45:11;10.40;;;9.30;;
3781;SDS011;6881;49.962;7.718;2024-03-02T13:47:36;10.93;;;9.63;;
3781;SDS011;6881;49.962;7.718;2024-03-02T13:50:02;8.83;;;8.03;;
3781;SDS011;6881;49.962;7.718;2024-03-02T13:52:27;10.13;;;9.10;;
3781;SDS011;6881;49.962;7.718;2024-03-02T13:54:53;9.27;;;8.37;;
3781;SDS011;6881;49.962;7.718;2024-03-02T13:57:18;10.20;;;8.23;;
3781;SDS011;6881;49.962;7.718;2024-03-02T13:59:45;10.40;;;9.00;;
3781;SDS011;6881;49.962;7.718;2024-03-02T14:02:10;9.80;;;8.60;;
3781;SDS011;6881;49.962;7.718;2024-03-02T14:04:36;13.83;;;8.63;;
3781;SDS011;6881;49.962;7.718;2024-03-02T14:07:02;8.40;;;7.50;;
3781;SDS011;6881;49.962;7.718;2024-03-02T14:09:28;9.50;;;8.50;;
3781;SDS011;6881;49.962;7.718;2024-03-02T14:11:54;10.07;;;8.40;;
3781;SDS011;6881;49.962;7.718;2024-03-02T14:14:19;8.23;;;7.20;;
3781;SDS011;6881;49.962;7.718;2024-03-02T14:16:45;10.70;;;7.67;;
3781;SDS011;6881;49.962;7.718;2024-03-02T14:19:10;11.27;;;9.13;;
3781;SDS011;6881;49.962;7.718;2024-03-02T14:21:37;9.10;;;7.63;;
3781;SDS011;6881;49.962;7.718;2024-03-02T14:24:02;10.20;;;8.33;;
3781;SDS011;6881;49.962;7.718;2024-03-02T14:26:28;13.00;;;7.50;;
3781;SDS011;6881;49.962;7.718;2024-03-02T14:28:53;11.63;;;7.90;;
3781;SDS011;6881;49.962;7.718;2024-03-02T14:31:19;11.17;;;8.23;;
3781;SDS011;6881;49.962;7.718;2024-03-02T14:33:45;10.83;;;7.90;;
3781;SDS011;6881;49.962;7.718;2024-03-02T14:36:10;8.37;;;7.00;;
3781;SDS011;6881;49.962;7.718;2024-03-02T14:38:36;9.57;;;8.50;;
3781;SDS011;6881;49.962;7.718;2024-03-02T14:41:02;7.90;;;6.93;;
3781;SDS011;6881;49.962;7.718;2024-03-02T14:43:28;9.40;;;7.10;;
3781;SDS011;6881;49.962;7.718;2024-03-02T14:45:53;8.97;;;6.30;;
3781;SDS011;6881;49.962;7.718;2024-03-02T14:48:19;7.13;;;6.43;;
3781;SDS011;6881;49.962;7.718;2024-03-02T14:50:44;8.73;;;6.10;;
3781;SDS011;6881;49.962;7.718;2024-03-02T14:53:10;9.20;;;6.10;;
3781;SDS011;6881;49.962;7.718;2024-03-02T14:55:35;7.17;;;5.20;;
3781;SDS011;6881;49.962;7.718;2024-03-02T14:58:01;7.17;;;5.40;;